createdAt,value
2022-09-15T00:02:38.120Z,17.00
2022-09-15T00:07:39.975Z,17.00
2022-09-15T00:12:41.891Z,17.03
2022-09-15T00:17:49.795Z,17.06
2022-09-15T00:22:51.535Z,17.08
2022-09-15T00:27:53.378Z,17.11
2022-09-15T00:32:55.109Z,17.13
2022-09-15T00:37:56.900Z,17.14
2022-09-15T00:42:58.625Z,17.15
2022-09-15T00:48:00.629Z,17.14
2022-09-15T00:53:06.176Z,17.12
2022-09-15T00:58:13.177Z,17.11
2022-09-15T01:03:25.591Z,17.09
2022-09-15T01:08:33.293Z,17.08
2022-09-15T01:13:35.077Z,17.06
2022-09-15T01:19:06.606Z,17.04
2022-09-15T01:24:32.599Z,17.03
2022-09-15T01:30:22.943Z,17.05
2022-09-15T01:35:39.505Z,17.10
2022-09-15T01:41:15.833Z,17.14
2022-09-15T01:46:21.552Z,17.19
2022-09-15T01:51:25.767Z,17.24
2022-09-15T01:56:27.575Z,17.27
2022-09-15T02:01:38.785Z,17.28
2022-09-15T02:07:07.140Z,17.30
2022-09-15T02:12:24.140Z,17.32
2022-09-15T02:17:29.504Z,17.32
2022-09-15T02:22:37.533Z,17.30
2022-09-15T02:27:52.808Z,17.28
2022-09-15T02:32:58.172Z,17.26
2022-09-15T02:38:00.874Z,17.25
2022-09-15T02:43:05.493Z,17.24
2022-09-15T02:48:09.621Z,17.22
2022-09-15T02:53:19.609Z,17.21
2022-09-15T02:58:30.324Z,17.17
2022-09-15T03:03:33.425Z,17.15
2022-09-15T03:08:35.314Z,17.13
2022-09-15T03:13:39.338Z,17.18
2022-09-15T03:18:42.201Z,17.20
2022-09-15T03:23:44.936Z,17.17
2022-09-15T03:28:46.772Z,17.15
2022-09-15T03:33:48.974Z,17.15
2022-09-15T03:38:50.922Z,17.16
2022-09-15T03:43:52.748Z,17.21
2022-09-15T03:48:54.506Z,17.26
2022-09-15T03:53:56.587Z,17.31
2022-09-15T03:58:59.472Z,17.37
2022-09-15T04:04:01.970Z,17.41
2022-09-15T04:09:04.413Z,17.44
2022-09-15T04:14:06.671Z,17.45
2022-09-15T04:19:25.599Z,17.46
2022-09-15T04:24:35.108Z,17.47
2022-09-15T04:29:43.667Z,17.50
2022-09-15T04:34:45.910Z,17.53
2022-09-15T04:39:49.100Z,17.58
2022-09-15T04:44:51.256Z,17.62
2022-09-15T04:49:53.006Z,17.67
2022-09-15T04:54:54.849Z,17.72
2022-09-15T04:59:56.718Z,17.78
2022-09-15T05:04:58.833Z,17.85
2022-09-15T05:10:07.685Z,17.94
2022-09-15T05:15:10.127Z,18.01
2022-09-15T05:20:12.298Z,18.05
2022-09-15T05:25:14.227Z,18.09
2022-09-15T05:30:36.717Z,18.13
2022-09-15T05:35:37.908Z,18.12
2022-09-15T05:40:39.575Z,18.06
2022-09-15T05:45:42.799Z,17.81
2022-09-15T05:50:49.727Z,17.60
2022-09-15T05:56:03.150Z,17.43
2022-09-15T06:01:08.042Z,17.35
2022-09-15T06:06:10.394Z,17.23
2022-09-15T06:11:17.969Z,17.16
2022-09-15T06:16:22.649Z,17.12
2022-09-15T06:21:28.992Z,17.01
2022-09-15T06:26:30.981Z,16.82
2022-09-15T06:31:42.833Z,16.69
2022-09-15T06:36:45.227Z,16.65
2022-09-15T06:42:01.670Z,16.70
2022-09-15T06:47:05.385Z,16.85
2022-09-15T06:52:22.596Z,17.01
2022-09-15T06:57:38.181Z,17.16
2022-09-15T07:02:40.268Z,17.23
2022-09-15T07:07:42.871Z,17.33
2022-09-15T07:12:46.293Z,17.40
2022-09-15T07:17:47.967Z,17.52
2022-09-15T07:22:49.738Z,17.72
2022-09-15T07:27:51.717Z,17.82
2022-09-15T07:32:54.084Z,17.92
2022-09-15T07:37:55.804Z,18.08
2022-09-15T07:42:57.606Z,18.15
2022-09-15T07:47:59.592Z,18.18
2022-09-15T07:53:01.411Z,18.31
2022-09-15T07:58:03.903Z,18.58
2022-09-15T08:03:05.670Z,18.94
2022-09-15T08:08:08.138Z,18.97
2022-09-15T08:13:16.580Z,18.52
2022-09-15T08:18:29.437Z,18.14
2022-09-15T08:23:31.130Z,17.86
2022-09-15T08:28:33.307Z,17.71
2022-09-15T08:33:36.105Z,17.71
2022-09-15T08:38:42.943Z,17.68
2022-09-15T08:44:08.449Z,17.72
2022-09-15T08:49:40.816Z,17.91
2022-09-15T08:54:45.004Z,18.06
2022-09-15T08:59:47.878Z,18.40
2022-09-15T09:05:11.646Z,18.93
2022-09-15T09:10:31.809Z,19.36
2022-09-15T09:15:51.600Z,19.73
2022-09-15T09:21:02.446Z,19.90
2022-09-15T09:26:07.486Z,19.81
2022-09-15T09:31:20.152Z,19.72
2022-09-15T09:36:22.051Z,19.34
2022-09-15T09:41:26.958Z,18.79
2022-09-15T09:46:29.037Z,18.37
2022-09-15T09:51:52.313Z,18.20
2022-09-15T09:56:56.077Z,18.19
2022-09-15T10:02:29.084Z,18.39
2022-09-15T10:07:34.245Z,18.76
2022-09-15T10:12:41.408Z,19.15
2022-09-15T10:17:46.492Z,19.47
2022-09-15T10:22:48.746Z,19.51
2022-09-15T10:28:15.067Z,19.57
2022-09-15T10:33:25.721Z,19.34
2022-09-15T10:38:54.327Z,18.54
2022-09-15T10:44:15.145Z,17.68
2022-09-15T10:49:56.764Z,17.27
2022-09-15T10:55:52.152Z,17.05
2022-09-15T11:01:22.631Z,16.86
2022-09-15T11:07:03.088Z,16.90
2022-09-15T11:12:34.258Z,16.89
2022-09-15T11:18:20.373Z,16.84
2022-09-15T11:23:40.340Z,16.80
2022-09-15T11:28:50.499Z,16.81
2022-09-15T11:34:05.953Z,16.86
2022-09-15T11:39:22.523Z,16.96
2022-09-15T11:44:32.909Z,17.09
2022-09-15T11:49:45.494Z,17.17
2022-09-15T11:54:54.645Z,17.22
2022-09-15T12:00:11.263Z,17.45
2022-09-15T12:05:22.284Z,17.77
2022-09-15T12:10:30.453Z,18.08
2022-09-15T12:15:32.489Z,18.48
2022-09-15T12:20:43.634Z,18.64
2022-09-15T12:26:19.048Z,18.73
2022-09-15T12:31:23.651Z,18.92
2022-09-15T12:36:48.429Z,18.86
2022-09-15T12:41:54.782Z,18.77
2022-09-15T12:46:59.245Z,18.89
2022-09-15T12:52:05.472Z,19.07
2022-09-15T12:57:24.555Z,18.95
2022-09-15T13:02:50.650Z,19.07
2022-09-15T13:07:56.294Z,19.38
2022-09-15T13:13:22.607Z,19.42
2022-09-15T13:18:26.044Z,19.09
2022-09-15T13:23:33.963Z,18.81
2022-09-15T13:28:37.854Z,18.61
2022-09-15T13:40:09.732Z,18.08
2022-09-15T13:45:37.817Z,18.05
2022-09-15T13:51:00.991Z,17.97
2022-09-15T13:56:09.574Z,17.86
2022-09-15T14:01:12.533Z,17.97
2022-09-15T14:06:31.417Z,18.02
2022-09-15T14:11:36.864Z,17.99
2022-09-15T14:16:39.387Z,17.85
2022-09-15T14:21:52.822Z,17.82
2022-09-15T14:27:07.996Z,17.85
2022-09-15T14:32:31.686Z,17.81
2022-09-15T14:37:55.374Z,17.77
2022-09-15T14:42:58.371Z,17.77
2022-09-15T14:48:02.308Z,17.79
2022-09-15T14:53:13.619Z,17.76
2022-09-15T14:58:21.006Z,17.79
2022-09-15T15:03:59.746Z,17.80
2022-09-15T15:09:24.907Z,17.74
2022-09-15T15:14:27.749Z,17.65
2022-09-15T15:19:41.389Z,17.63
2022-09-15T15:24:46.242Z,17.53
2022-09-15T15:29:48.127Z,17.43
2022-09-15T15:34:53.558Z,17.45
2022-09-15T15:40:06.695Z,17.18
2022-09-15T15:45:09.453Z,17.03
2022-09-15T15:50:20.876Z,16.93
2022-09-15T15:55:47.689Z,16.96
2022-09-15T16:00:52.002Z,16.85
2022-09-15T16:05:57.706Z,16.80
2022-09-15T16:11:01.657Z,16.83
2022-09-15T16:16:14.022Z,16.75
2022-09-15T16:21:19.195Z,16.64
2022-09-15T16:26:25.158Z,16.57
2022-09-15T16:31:27.398Z,16.47
2022-09-15T16:36:36.370Z,16.31
2022-09-15T16:41:39.453Z,16.23
2022-09-15T16:46:41.374Z,16.16
2022-09-15T16:52:03.590Z,16.04
2022-09-15T16:57:12.275Z,16.09
2022-09-15T17:02:14.344Z,16.16
2022-09-15T17:07:16.154Z,16.22
2022-09-15T17:12:18.233Z,16.32
2022-09-15T17:17:24.736Z,16.40
2022-09-15T17:22:26.440Z,16.39
2022-09-15T17:27:28.269Z,16.30
2022-09-15T17:32:34.706Z,16.22
2022-09-15T17:37:37.202Z,16.13
2022-09-15T17:42:38.984Z,16.00
2022-09-15T17:47:40.716Z,15.90
2022-09-15T17:52:42.633Z,15.86
2022-09-15T17:57:44.988Z,15.84
2022-09-15T18:02:57.939Z,15.81
2022-09-15T18:08:03.372Z,15.73
2022-09-15T18:13:06.002Z,15.70
2022-09-15T18:18:14.148Z,15.68
2022-09-15T18:23:19.915Z,15.65
2022-09-15T18:28:21.822Z,15.57
2022-09-15T18:33:25.599Z,15.51
2022-09-15T18:38:27.826Z,15.49
2022-09-15T18:43:29.652Z,15.48
2022-09-15T18:48:31.788Z,15.48
2022-09-15T18:53:38.150Z,15.51
2022-09-15T18:58:40.413Z,15.51
2022-09-15T19:03:45.211Z,15.47
2022-09-15T19:08:47.286Z,15.41
2022-09-15T19:13:49.346Z,15.38
2022-09-15T19:18:51.187Z,15.33
2022-09-15T19:23:57.997Z,15.25
2022-09-15T19:28:59.903Z,15.16
2022-09-15T19:34:04.267Z,15.04
2022-09-15T19:39:06.620Z,14.98
2022-09-15T19:44:10.671Z,14.92
2022-09-15T19:49:12.980Z,14.79
2022-09-15T19:54:14.732Z,14.69
2022-09-15T19:59:16.467Z,14.57
2022-09-15T20:04:18.384Z,14.46
2022-09-15T20:09:20.288Z,14.36
2022-09-15T20:14:22.110Z,14.28
2022-09-15T20:19:24.418Z,14.21
2022-09-15T20:24:26.355Z,14.13
2022-09-15T20:29:30.533Z,14.05
2022-09-15T20:34:32.301Z,14.01
2022-09-15T20:39:38.281Z,13.98
2022-09-15T20:44:55.586Z,13.88
2022-09-15T20:50:08.413Z,13.67
2022-09-15T20:55:10.089Z,13.57
2022-09-15T21:00:12.588Z,13.50
2022-09-15T21:05:14.500Z,13.47
2022-09-15T21:10:16.288Z,13.41
2022-09-15T21:15:18.146Z,13.30
2022-09-15T21:20:40.546Z,13.24
2022-09-15T21:26:10.871Z,13.20
2022-09-15T21:31:16.155Z,13.22
2022-09-15T21:36:31.404Z,13.26
2022-09-15T21:41:33.046Z,13.30
2022-09-15T21:46:34.755Z,13.28
2022-09-15T21:51:52.127Z,13.28
2022-09-15T21:56:53.971Z,13.35
2022-09-15T22:01:56.088Z,13.36
2022-09-15T22:06:57.969Z,13.35
2022-09-15T22:11:59.798Z,13.32
2022-09-15T22:17:01.521Z,13.31
2022-09-15T22:22:03.441Z,13.30
2022-09-15T22:27:05.193Z,13.30
2022-09-15T22:32:07.823Z,13.30
2022-09-15T22:37:09.556Z,13.31
2022-09-15T22:42:11.290Z,13.30
2022-09-15T22:47:13.018Z,13.28
2022-09-15T22:52:14.739Z,13.28
2022-09-15T22:57:16.490Z,13.32
2022-09-15T23:02:18.336Z,13.43
2022-09-15T23:07:20.121Z,13.50
2022-09-15T23:12:22.022Z,13.55
2022-09-15T23:17:24.200Z,13.58
2022-09-15T23:22:26.392Z,13.60
2022-09-15T23:27:48.568Z,13.62
2022-09-15T23:32:50.420Z,13.64
2022-09-15T23:37:52.458Z,13.66
2022-09-15T23:42:54.213Z,13.65
2022-09-15T23:47:55.906Z,13.63
2022-09-15T23:52:58.114Z,13.61
2022-09-15T23:57:59.970Z,13.61
